Estrella, Colorado
Current Conditions -  °F | °C
As of 2:52 AM on Monday 26 Jan 2015 (Local Time) from KALS Reporting Station
Clear Clear  
Wind Chill: -1°   Ceiling: Unl
Heat Index: 10°   Visibility: 10mi
Dew Point:   Wind: 7mph
Humidity: 87%   Direction: 170°S
Pressure: 30.4"   Gusts: NA
Location:  37.469°N, 105.836°W
Report Text: KALS 260952Z AUTO 17006KT 10SM CLR M12/M14 A3040 RMK AO2 SLP312 T11221139
Loading
Personal Weather Stations






























Interactive Weather Map New forecast layout! Learn more

10-Day Weather Forecast

Advertisements
Track Severe Weather on mobile